Terminal Aerodrome Forecast
Issued by NWS

Home | Current Version | Previous Version | Text Only | Print | Product List | Glossary On
Versions: 1 2 3 4 5 6 7 8 9 10 11 12 13 14 15 16
000
FTUS46 KMTR 300500
TAFSTS
TAF
KSTS 300532Z 3006/3106 36003KT P6SM SKC
     FM300900 00000KT 1SM BR BKN003
     FM301200 00000KT 1/2SM FG VV002
     FM301800 VRB03KT 5SM BR SKC
     FM301900 25006KT P6SM SKC
     FM310500 33007KT P6SM SKC=

USA.gov is the U.S. government's official web portal to all federal, state and local government web resources and services.